createdAt,value
2019-03-22T00:01:49.757Z,53.8
2019-03-22T00:06:46.850Z,54
2019-03-22T00:11:44.767Z,53.6
2019-03-22T00:16:41.991Z,54.1
2019-03-22T00:21:39.458Z,53.9
2019-03-22T00:26:37.430Z,53.7
2019-03-22T00:31:34.640Z,53.5
2019-03-22T00:36:31.703Z,53.6
2019-03-22T00:41:28.509Z,54.4
2019-03-22T00:46:26.039Z,54.9
2019-03-22T00:51:23.777Z,54.6
2019-03-22T00:56:20.760Z,54.7
2019-03-22T01:01:18.036Z,54.7
2019-03-22T01:06:15.346Z,54.9
2019-03-22T01:11:12.539Z,54.4
2019-03-22T01:16:10.265Z,54.2
2019-03-22T01:21:07.835Z,54.7
2019-03-22T01:26:05.619Z,55.2
2019-03-22T01:31:03.136Z,54.8
2019-03-22T01:36:00.507Z,54.9
2019-03-22T01:40:58.240Z,55
2019-03-22T01:45:54.908Z,55.1
2019-03-22T01:50:52.259Z,54.9
2019-03-22T01:55:49.657Z,55.1
2019-03-22T02:00:47.324Z,55.2
2019-03-22T02:05:44.311Z,55.5
2019-03-22T02:10:41.874Z,55.6
2019-03-22T02:15:39.495Z,55.3
2019-03-22T02:20:36.983Z,55
2019-03-22T02:25:34.588Z,55.3
2019-03-22T02:30:31.892Z,55.5
2019-03-22T02:35:29.735Z,55.4
2019-03-22T02:40:26.241Z,55.6
2019-03-22T02:45:23.611Z,55.2
2019-03-22T02:50:21.120Z,55.5
2019-03-22T02:55:18.675Z,55.4
2019-03-22T03:00:15.849Z,55.1
2019-03-22T03:05:13.633Z,55.6
2019-03-22T03:10:11.107Z,55.2
2019-03-22T03:15:07.941Z,54.9
2019-03-22T03:20:05.177Z,54.8
2019-03-22T03:25:03.058Z,55.3
2019-03-22T03:30:00.683Z,55.3
2019-03-22T03:34:57.996Z,55.6
2019-03-22T03:39:55.653Z,56.1
2019-03-22T03:44:52.819Z,56.1
2019-03-22T03:49:50.398Z,55.4
2019-03-22T03:54:47.595Z,55.8
2019-03-22T03:59:44.943Z,55.8
2019-03-22T04:04:42.500Z,55.5
2019-03-22T04:09:39.717Z,55.2
2019-03-22T04:14:36.610Z,55.3
2019-03-22T04:19:33.894Z,55.8
2019-03-22T04:24:30.974Z,56
2019-03-22T04:29:28.506Z,56.4
2019-03-22T04:34:25.749Z,55.8
2019-03-22T04:39:22.733Z,55.8
2019-03-22T04:44:20.060Z,55.4
2019-03-22T04:49:17.200Z,55.4
2019-03-22T04:54:14.430Z,55.1
2019-03-22T04:59:18.743Z,55
2019-03-22T05:04:08.773Z,54.7
2019-03-22T05:09:06.032Z,55.7
2019-03-22T05:14:03.448Z,56.1
2019-03-22T05:19:00.916Z,55.7
2019-03-22T05:23:58.246Z,56.5
2019-03-22T05:28:55.502Z,56.6
2019-03-22T05:33:52.696Z,57.5
2019-03-22T05:38:50.041Z,56.8
2019-03-22T05:43:47.493Z,56.6
2019-03-22T05:48:44.956Z,57.2
2019-03-22T05:53:42.037Z,57.7
2019-03-22T05:58:39.537Z,58
2019-03-22T06:03:36.688Z,58.2
2019-03-22T06:08:34.372Z,57.7
2019-03-22T06:13:31.803Z,57.3
2019-03-22T06:18:29.250Z,56.9
2019-03-22T06:23:26.477Z,57
2019-03-22T06:28:23.675Z,56.9
2019-03-22T06:33:20.945Z,56.7
2019-03-22T06:38:18.229Z,56.9
2019-03-22T06:43:15.835Z,56.4
2019-03-22T06:48:13.268Z,56.1
2019-03-22T06:53:10.546Z,56.1
2019-03-22T06:58:07.926Z,56
2019-03-22T07:03:06.036Z,56.2
2019-03-22T07:08:03.239Z,56.2
2019-03-22T07:13:00.989Z,56.1
2019-03-22T07:17:58.692Z,56.3
2019-03-22T07:22:55.958Z,56.2
2019-03-22T07:27:53.830Z,56.1
2019-03-22T07:32:50.738Z,56.1
2019-03-22T07:37:48.135Z,55.9
2019-03-22T07:42:45.621Z,55.8
2019-03-22T07:47:43.834Z,55.7
2019-03-22T07:52:41.602Z,55.6
2019-03-22T07:57:38.773Z,55.8
2019-03-22T08:02:36.576Z,55.6
2019-03-22T08:07:33.670Z,55
2019-03-22T08:12:31.497Z,54.9
2019-03-22T08:17:29.231Z,54.2
2019-03-22T08:22:26.677Z,53.8
2019-03-22T08:27:24.504Z,53.2
2019-03-22T08:32:21.833Z,52.3
2019-03-22T08:37:19.668Z,51.6
2019-03-22T08:42:16.832Z,51
2019-03-22T08:47:14.124Z,51
2019-03-22T08:52:11.490Z,49.7
2019-03-22T08:57:09.425Z,49.6
2019-03-22T09:02:08.576Z,49
2019-03-22T09:07:05.749Z,48.1
2019-03-22T09:12:03.487Z,47.4
2019-03-22T09:17:00.806Z,46.4
2019-03-22T09:21:59.564Z,45.7
2019-03-22T09:26:56.171Z,45.7
2019-03-22T09:31:53.754Z,45
2019-03-22T09:36:50.289Z,44.5
2019-03-22T09:41:47.942Z,43.9
2019-03-22T09:46:45.530Z,44.1
2019-03-22T09:51:43.495Z,44.2
2019-03-22T09:56:46.637Z,44
2019-03-22T10:06:36.219Z,43
2019-03-22T10:11:33.541Z,42.9
2019-03-22T10:16:31.267Z,42.2
2019-03-22T10:21:28.825Z,41.6
2019-03-22T10:26:26.592Z,40.9
2019-03-22T10:31:36.105Z,40.4
2019-03-22T10:36:21.407Z,40.2
2019-03-22T10:41:18.576Z,39.7
2019-03-22T10:46:16.706Z,39.6
2019-03-22T10:51:13.666Z,39.2
2019-03-22T10:56:11.162Z,39
2019-03-22T11:01:08.794Z,38.5
2019-03-22T11:06:06.306Z,38.7
2019-03-22T11:11:03.581Z,37.8
2019-03-22T11:16:01.066Z,37.3
2019-03-22T11:21:04.993Z,37.8
2019-03-22T11:26:03.769Z,37.9
2019-03-22T11:31:01.112Z,37.6
2019-03-22T11:35:52.446Z,37.2
2019-03-22T11:40:50.589Z,36.4
2019-03-22T11:45:48.652Z,36.2
2019-03-22T11:50:46.220Z,35.8
2019-03-22T11:55:44.313Z,35
2019-03-22T12:00:41.828Z,35.2
2019-03-22T12:05:40.394Z,34.8
2019-03-22T12:10:37.525Z,34.5
2019-03-22T12:15:34.972Z,33.9
2019-03-22T12:20:32.578Z,33.5
2019-03-22T12:25:30.360Z,33.3
2019-03-22T12:30:27.731Z,32.9
2019-03-22T12:35:25.987Z,32.2
2019-03-22T12:40:22.965Z,32.4
2019-03-22T12:45:21.125Z,31.8
2019-03-22T12:50:18.813Z,31.8
2019-03-22T12:55:16.717Z,30.8
2019-03-22T13:00:14.961Z,30.8
2019-03-22T13:05:12.529Z,30.6
2019-03-22T13:10:09.946Z,30.4
2019-03-22T13:15:07.755Z,30
2019-03-22T13:20:05.299Z,30.1
2019-03-22T13:25:03.184Z,29.8
2019-03-22T13:30:00.778Z,30
2019-03-22T13:34:58.313Z,29.4
2019-03-22T13:39:55.889Z,29.7
2019-03-22T13:44:53.279Z,29.4
2019-03-22T13:49:51.318Z,29.3
2019-03-22T13:54:54.948Z,29.2
2019-03-22T13:59:56.625Z,29.2
2019-03-22T14:15:04.298Z,28.8
2019-03-22T14:20:10.680Z,29.3
2019-03-22T14:25:00.011Z,29.1
2019-03-22T14:29:57.625Z,28.6
2019-03-22T14:34:55.191Z,28.4
2019-03-22T14:39:52.546Z,28.2
2019-03-22T14:44:50.459Z,28.9
2019-03-22T14:49:47.923Z,28.8
2019-03-22T14:54:46.061Z,28.7
2019-03-22T14:59:43.925Z,29.6
2019-03-22T15:04:41.991Z,29.9
2019-03-22T15:09:39.865Z,29.7
2019-03-22T15:14:37.422Z,29.6
2019-03-22T15:19:35.055Z,29.6
2019-03-22T15:24:33.349Z,29.6
2019-03-22T15:34:29.259Z,30.1
2019-03-22T15:39:26.952Z,30.4
2019-03-22T15:44:23.970Z,30.2
2019-03-22T15:49:21.551Z,30.5
2019-03-22T15:54:18.665Z,30.7
2019-03-22T15:59:16.171Z,31
2019-03-22T16:04:13.925Z,31.2
2019-03-22T16:09:11.418Z,31.4
2019-03-22T16:14:08.775Z,31.5
2019-03-22T16:19:06.437Z,31.8
2019-03-22T16:24:03.917Z,32.4
2019-03-22T16:29:01.891Z,32.7
2019-03-22T16:33:59.244Z,33
2019-03-22T16:38:56.651Z,33.2
2019-03-22T16:43:54.331Z,33.6
2019-03-22T16:48:51.872Z,33.4
2019-03-22T16:53:49.689Z,33.5
2019-03-22T16:58:47.500Z,33.8
2019-03-22T17:03:44.677Z,34.1
2019-03-22T17:08:42.074Z,34.2
2019-03-22T17:13:39.841Z,34
2019-03-22T17:18:37.303Z,34.1
2019-03-22T17:23:35.208Z,34.3
2019-03-22T17:28:32.762Z,34.2
2019-03-22T17:33:29.826Z,34.4
2019-03-22T17:38:27.054Z,34.4
2019-03-22T17:43:24.543Z,34.6
2019-03-22T17:48:22.219Z,34.6
2019-03-22T17:53:19.638Z,34.6
2019-03-22T17:58:17.203Z,34.7
2019-03-22T18:03:14.772Z,35
2019-03-22T18:08:12.452Z,35.2
2019-03-22T18:13:10.051Z,35.2
2019-03-22T18:18:07.139Z,35.3
2019-03-22T18:23:04.911Z,35.3
2019-03-22T18:28:01.011Z,35.1
2019-03-22T18:32:58.454Z,34.7
2019-03-22T18:37:55.794Z,34.9
2019-03-22T18:42:53.151Z,34.9
2019-03-22T18:47:50.457Z,34.8
2019-03-22T18:52:48.430Z,35
2019-03-22T18:57:45.765Z,35
2019-03-22T19:02:42.992Z,34.8
2019-03-22T19:07:40.379Z,35
2019-03-22T19:12:37.703Z,35.1
2019-03-22T19:17:35.205Z,35.2
2019-03-22T19:22:32.864Z,35.3
2019-03-22T19:27:30.319Z,35.4
2019-03-22T19:32:27.758Z,35.6
2019-03-22T19:37:25.246Z,35.7
2019-03-22T19:42:21.643Z,35.9
2019-03-22T19:47:19.233Z,36
2019-03-22T19:52:16.847Z,36.3
2019-03-22T19:57:14.483Z,36.3
2019-03-22T20:02:11.932Z,36.3
2019-03-22T20:07:09.303Z,36.3
2019-03-22T20:12:06.823Z,36.3
2019-03-22T20:17:04.284Z,36.5
2019-03-22T20:22:01.934Z,37
2019-03-22T20:26:59.539Z,37.6
2019-03-22T20:31:57.020Z,37.7
2019-03-22T20:41:52.520Z,37.5
2019-03-22T20:46:50.035Z,38
2019-03-22T20:51:47.342Z,38.5
2019-03-22T20:56:44.839Z,38.3
2019-03-22T21:01:42.512Z,38.2
2019-03-22T21:06:40.088Z,38.2
2019-03-22T21:11:38.220Z,38.2
2019-03-22T21:16:36.113Z,38.4
2019-03-22T21:21:36.411Z,38.9
2019-03-22T21:26:32.124Z,39
2019-03-22T21:31:30.215Z,38.9
2019-03-22T21:36:27.674Z,39.1
2019-03-22T21:41:25.659Z,39.4
2019-03-22T21:46:23.613Z,39.9
2019-03-22T21:51:21.616Z,40.3
2019-03-22T21:56:19.106Z,40.3
2019-03-22T22:01:17.613Z,39.9
2019-03-22T22:06:15.564Z,39.3
2019-03-22T22:11:13.570Z,38.3
2019-03-22T22:16:11.497Z,38.3
2019-03-22T22:21:09.463Z,39.7
2019-03-22T22:26:07.136Z,40.2
2019-03-22T22:31:05.887Z,40.1
2019-03-22T22:36:03.065Z,40.3
2019-03-22T22:41:00.502Z,40.4
2019-03-22T22:45:57.967Z,40.5
2019-03-22T22:50:55.427Z,40.4
2019-03-22T22:55:53.341Z,41
2019-03-22T23:00:50.795Z,41.1
2019-03-22T23:05:48.311Z,41.3
2019-03-22T23:10:45.769Z,41
2019-03-22T23:15:43.025Z,41.3
2019-03-22T23:20:41.074Z,41.2
2019-03-22T23:25:38.322Z,41.8
2019-03-22T23:30:36.374Z,41.4
2019-03-22T23:35:34.215Z,41.3
2019-03-22T23:40:31.177Z,41.4
2019-03-22T23:45:28.765Z,41.7
2019-03-22T23:50:25.776Z,41.7
2019-03-22T23:55:23.892Z,41.9
